Time;durP1;ratioP1;P1;durP2;ratioP2;P2;SDS_P1;SDS_P2;PMS_P1;PMS_P2;Temp;Humidity;BMP_temperature;BMP_pressure;BME280_temperature;BME280_humidity;BME280_pressure;Samples;Min_cycle;Max_cycle;Signal;HPM_P1;HPM_P2
2022/12/10 00:00:35;;;;;;;;;16.40;15.40;;;;;0.85;84.17;99059.63;5078108;28;9522;-58
2022/12/10 00:03:03;;;;;;;;;13.80;13.40;;;;;0.85;84.62;99064.84;5077550;28;8899;-59
2022/12/10 00:05:31;;;;;;;;;21.40;18.20;;;;;0.85;84.19;99065.69;5076321;28;8826;-59
2022/12/10 00:07:59;;;;;;;;;25.00;24.00;;;;;0.87;84.46;99061.22;5077130;28;8846;-59
2022/12/10 00:10:26;;;;;;;;;16.00;15.00;;;;;0.91;84.78;99070.59;5077460;28;8822;-59
2022/12/10 00:12:54;;;;;;;;;12.80;12.40;;;;;0.94;84.49;99066.97;5076707;28;8834;-59
2022/12/10 00:15:22;;;;;;;;;15.80;15.80;;;;;0.94;84.30;99064.34;5065291;28;8820;-56
2022/12/10 00:17:49;;;;;;;;;16.00;13.00;;;;;0.94;84.10;99069.59;5056981;28;8824;-58
2022/12/10 00:20:17;;;;;;;;;9.60;8.20;;;;;0.95;84.49;99063.41;5049434;28;8843;-59
2022/12/10 00:22:45;;;;;;;;;18.20;15.00;;;;;0.95;84.30;99064.28;5057092;28;8942;-59
2022/12/10 00:25:13;;;;;;;;;8.80;7.20;;;;;0.95;84.32;99060.78;5066465;28;8834;-59
2022/12/10 00:27:41;;;;;;;;;11.60;9.40;;;;;0.93;84.65;99068.72;5075846;28;8842;-57
2022/12/10 00:30:09;;;;;;;;;27.40;20.60;;;;;0.94;84.97;99061.72;5074086;28;8814;-58
2022/12/10 00:32:37;;;;;;;;;9.20;8.60;;;;;0.95;84.25;99061.66;5057110;28;8828;-59
2022/12/10 00:35:05;;;;;;;;;16.00;14.60;;;;;0.94;84.27;99059.97;5057137;28;8839;-58
2022/12/10 00:37:32;;;;;;;;;16.60;12.20;;;;;0.93;83.87;99058.25;5057136;28;8855;-58
2022/12/10 00:40:00;;;;;;;;;13.40;11.60;;;;;0.93;84.56;99062.66;5075228;28;8814;-57
2022/12/10 00:42:28;;;;;;;;;10.40;9.80;;;;;0.93;83.82;99057.41;5076591;28;8826;-58
2022/12/10 00:44:56;;;;;;;;;11.60;10.00;;;;;0.92;84.23;99067.03;5076714;28;8822;-58
2022/12/10 00:47:23;;;;;;;;;17.60;17.20;;;;;0.92;84.09;99051.31;5076608;28;8837;-57
2022/12/10 00:49:52;;;;;;;;;17.20;16.60;;;;;0.92;84.79;99055.72;5058737;28;8894;-56
2022/12/10 00:52:20;;;;;;;;;12.00;10.40;;;;;0.92;84.18;99060.97;5056509;28;8848;-57
2022/12/10 00:54:48;;;;;;;;;13.40;12.40;;;;;0.93;84.69;99058.25;5056128;28;8832;-59
2022/12/10 00:57:16;;;;;;;;;20.60;19.40;;;;;0.95;84.02;99056.41;5056417;28;8820;-58
2022/12/10 00:59:43;;;;;;;;;11.40;10.80;;;;;0.99;84.45;99062.31;5071991;28;8915;-57
2022/12/10 01:02:13;;;;;;;;;13.40;12.60;;;;;1.01;84.46;99070.94;5076292;28;8868;-58
2022/12/10 01:04:40;;;;;;;;;15.80;13.40;;;;;1.01;84.11;99063.91;5076328;28;8825;-58
2022/12/10 01:07:08;;;;;;;;;10.40;9.00;;;;;1.03;84.40;99074.31;5076617;28;8967;-59
2022/12/10 01:09:37;;;;;;;;;17.20;12.60;;;;;1.04;84.28;99073.38;5060663;28;9518;-58
2022/12/10 01:12:05;;;;;;;;;13.40;12.80;;;;;1.05;84.24;99075.06;5056288;28;8820;-58
2022/12/10 01:14:36;;;;;;;;;12.60;10.80;;;;;1.07;84.59;99070.59;5056214;28;8839;-58
2022/12/10 01:17:04;;;;;;;;;15.00;14.80;;;;;1.10;83.78;99073.06;5056516;28;8820;-58
2022/12/10 01:19:32;;;;;;;;;14.20;11.60;;;;;1.11;84.86;99078.22;5069707;28;8837;-58
2022/12/10 01:22:00;;;;;;;;;19.20;19.20;;;;;1.10;84.38;99084.41;5076298;28;9511;-59
2022/12/10 01:24:27;;;;;;;;;17.20;16.20;;;;;1.09;84.19;99087.94;5075644;28;8830;-58
2022/12/10 01:26:57;;;;;;;;;12.00;12.00;;;;;1.06;84.19;99080.22;5076923;28;8822;-57
2022/12/10 01:29:26;;;;;;;;;7.40;4.40;;;;;1.08;83.98;99078.38;5063684;28;8819;-56
2022/12/10 01:31:53;;;;;;;;;12.40;9.40;;;;;1.08;83.87;99083.59;5057049;28;8846;-59
2022/12/10 01:34:22;;;;;;;;;8.60;7.00;;;;;1.08;83.96;99085.41;5056757;28;8917;-58
2022/12/10 01:36:49;;;;;;;;;13.80;11.60;;;;;1.09;84.51;99093.19;5064630;28;9478;-57
2022/12/10 01:39:18;;;;;;;;;20.00;17.60;;;;;1.15;83.78;99092.00;5056201;28;8808;-57
2022/12/10 01:41:45;;;;;;;;;12.40;12.40;;;;;1.15;83.97;99095.44;5056773;28;8921;-58
2022/12/10 01:44:13;;;;;;;;;17.80;16.40;;;;;1.13;84.30;99097.31;5056238;28;8820;-57
2022/12/10 01:46:41;;;;;;;;;14.40;13.00;;;;;1.11;84.19;99093.09;5067936;28;8806;-58
2022/12/10 01:49:08;;;;;;;;;20.40;16.80;;;;;1.10;83.79;99096.63;5076396;28;8954;-57
2022/12/10 01:51:37;;;;;;;;;13.20;11.60;;;;;1.10;84.29;99096.63;5076370;28;8813;-58
2022/12/10 01:54:04;;;;;;;;;13.80;13.40;;;;;1.10;84.59;99094.00;5076094;28;8826;-59
2022/12/10 01:56:32;;;;;;;;;11.60;11.20;;;;;1.08;84.16;99094.09;5065546;28;8819;-56
2022/12/10 01:59:00;;;;;;;;;17.00;15.40;;;;;1.08;84.36;99090.66;5056045;28;8812;-56
2022/12/10 02:01:28;;;;;;;;;15.00;14.00;;;;;1.10;83.98;99097.50;5055930;28;8812;-57
2022/12/10 02:03:57;;;;;;;;;9.20;8.60;;;;;1.12;84.45;99103.50;5058621;28;8909;-59
2022/12/10 02:06:25;;;;;;;;;22.00;20.20;;;;;1.12;84.38;99103.50;5076050;28;8830;-56
2022/12/10 02:08:52;;;;;;;;;16.40;15.60;;;;;1.11;83.93;99099.19;5075882;28;8830;-56
2022/12/10 02:11:20;;;;;;;;;12.40;10.20;;;;;1.13;84.15;99105.19;5076666;28;9827;-57
2022/12/10 02:13:48;;;;;;;;;9.20;8.00;;;;;1.12;83.63;99100.00;5074485;28;8818;-57
2022/12/10 02:16:16;;;;;;;;;15.40;12.40;;;;;1.11;84.21;99098.31;5056369;28;9513;-57
2022/12/10 02:18:44;;;;;;;;;17.40;16.00;;;;;1.10;83.69;99110.59;5055655;28;8891;-57
2022/12/10 02:21:12;;;;;;;;;18.60;14.20;;;;;1.10;84.42;99102.75;5055840;28;8909;-56
2022/12/10 02:23:40;;;;;;;;;15.20;13.00;;;;;1.10;83.91;99102.75;5055840;28;8836;-56
2022/12/10 02:26:07;;;;;;;;;9.00;8.20;;;;;1.12;84.62;99100.88;5055542;28;8828;-57
2022/12/10 02:28:35;;;;;;;;;11.80;11.80;;;;;1.13;83.62;99105.19;5055881;28;8828;-58
2022/12/10 02:31:03;;;;;;;;;12.60;11.80;;;;;1.14;84.15;99098.19;5055981;28;8823;-58
2022/12/10 02:33:30;;;;;;;;;18.40;17.80;;;;;1.16;84.09;99094.50;5055931;28;8832;-58
2022/12/10 02:35:59;;;;;;;;;16.60;15.00;;;;;1.18;84.26;99090.06;5073932;28;8810;-58
2022/12/10 02:38:27;;;;;;;;;14.40;11.60;;;;;1.18;84.23;99095.28;5076086;28;9559;-57
2022/12/10 02:40:55;;;;;;;;;13.00;12.00;;;;;1.17;84.12;99096.22;5075229;28;8923;-58
2022/12/10 02:43:23;;;;;;;;;15.20;13.80;;;;;1.18;84.22;99095.28;5075640;28;8838;-58
2022/12/10 02:45:51;;;;;;;;;7.80;3.40;;;;;1.18;84.15;99095.28;5057643;28;8827;-59
2022/12/10 02:48:19;;;;;;;;;8.40;6.20;;;;;1.19;84.50;99091.75;5054772;28;8831;-58
2022/12/10 02:50:46;;;;;;;;;13.80;11.60;;;;;1.21;84.16;99089.88;5054800;28;8860;-58
2022/12/10 02:53:14;;;;;;;;;11.60;9.60;;;;;1.22;84.25;99086.31;5054691;28;8835;-58
2022/12/10 02:55:42;;;;;;;;;10.40;9.20;;;;;1.22;84.80;99081.06;5070770;28;8887;-59
2022/12/10 02:58:10;;;;;;;;;27.80;23.00;;;;;1.22;84.36;99091.56;5074545;28;8927;-58
2022/12/10 03:00:37;;;;;;;;;13.80;13.80;;;;;1.21;83.75;99089.03;5074896;28;8825;-58
2022/12/10 03:03:05;;;;;;;;;11.00;10.20;;;;;1.19;83.83;99091.75;5074822;28;8826;-59
2022/12/10 03:05:33;;;;;;;;;9.20;9.20;;;;;1.18;84.55;99086.56;5059847;28;8796;-59
2022/12/10 03:08:00;;;;;;;;;13.60;11.40;;;;;1.18;83.96;99097.06;5055284;28;8857;-58
2022/12/10 03:10:28;;;;;;;;;12.20;11.60;;;;;1.17;84.32;99098.84;5055026;28;8856;-59
2022/12/10 03:12:55;;;;;;;;;19.40;19.00;;;;;1.16;84.48;99094.50;5054739;28;8840;-58
2022/12/10 03:15:23;;;;;;;;;13.40;12.40;;;;;1.18;84.95;99097.91;5067258;28;8817;-58
2022/12/10 03:17:52;;;;;;;;;4.60;4.20;;;;;1.18;83.62;99100.53;5074842;28;9507;-58
2022/12/10 03:20:19;;;;;;;;;10.00;7.80;;;;;1.20;84.13;99100.44;5074809;28;8940;-58
2022/12/10 03:22:47;;;;;;;;;11.60;10.40;;;;;1.19;84.20;99102.22;5074684;28;8818;-59
2022/12/10 03:25:15;;;;;;;;;13.40;11.60;;;;;1.19;83.87;99096.97;5063397;28;8820;-58
2022/12/10 03:27:43;;;;;;;;;7.80;6.80;;;;;1.18;83.82;99100.53;5054706;28;8828;-59
2022/12/10 03:30:12;;;;;;;;;12.60;9.40;;;;;1.19;84.13;99110.09;5054748;28;8832;-58
2022/12/10 03:32:40;;;;;;;;;8.60;8.20;;;;;1.19;84.14;99102.22;5055037;28;8949;-59
2022/12/10 03:35:08;;;;;;;;;7.80;5.00;;;;;1.20;84.11;99109.16;5064213;28;8790;-59
2022/12/10 03:37:36;;;;;;;;;8.00;8.00;;;;;1.20;84.09;99101.28;5074678;28;8830;-59
2022/12/10 03:40:03;;;;;;;;;11.20;9.80;;;;;1.22;83.72;99103.84;5074755;28;9022;-59
2022/12/10 03:42:31;;;;;;;;;12.60;9.80;;;;;1.23;84.26;99111.59;5074699;28;8931;-59
2022/12/10 03:44:58;;;;;;;;;9.40;8.00;;;;;1.23;83.86;99108.97;5065727;28;8944;-59
2022/12/10 03:47:26;;;;;;;;;18.00;15.00;;;;;1.23;84.27;99114.22;5055327;28;8820;-58
2022/12/10 03:49:55;;;;;;;;;13.20;13.20;;;;;1.22;84.16;99112.53;5058024;28;8820;-58
2022/12/10 03:52:22;;;;;;;;;10.80;9.20;;;;;1.21;83.98;99113.47;5058246;28;8832;-59
2022/12/10 03:54:50;;;;;;;;;9.60;7.80;;;;;1.19;84.71;99115.34;5065811;28;8895;-59
2022/12/10 03:57:18;;;;;;;;;7.40;6.80;;;;;1.16;84.09;99115.47;5078758;28;8829;-59
2022/12/10 03:59:45;;;;;;;;;7.00;6.00;;;;;1.15;84.00;99111.16;5078349;28;8822;-59
2022/12/10 04:02:13;;;;;;;;;6.60;6.60;;;;;1.14;84.56;99108.66;5078939;28;8826;-59
2022/12/10 04:04:41;;;;;;;;;5.20;4.20;;;;;1.14;84.60;99113.91;5072049;28;8840;-59
2022/12/10 04:07:10;;;;;;;;;4.40;4.40;;;;;1.12;83.95;99106.13;5058646;28;8839;-59
2022/12/10 04:09:37;;;;;;;;;7.40;6.80;;;;;1.13;83.34;99114.84;5058313;28;8921;-59
2022/12/10 04:12:05;;;;;;;;;11.80;7.40;;;;;1.13;84.16;99112.22;5058617;28;8828;-59
2022/12/10 04:17:18;;;;;;;;;6.60;5.80;;;;;1.17;84.21;99116.34;5078295;28;8841;-59
2022/12/10 04:19:46;;;;;;;;;8.20;8.20;;;;;1.16;83.97;99119.91;5078164;28;8830;-58
2022/12/10 04:27:46;;;;;;;;;7.80;7.40;;;;;1.22;83.60;99111.69;5058612;28;8816;-59
2022/12/10 04:30:14;;;;;;;;;7.40;5.60;;;;;1.20;84.36;99111.78;5058142;28;8905;-58
2022/12/10 04:32:42;;;;;;;;;6.20;5.60;;;;;1.16;83.77;99115.47;5058067;28;8847;-57
2022/12/10 04:35:09;;;;;;;;;11.20;9.40;;;;;1.13;84.04;99114.84;5067132;28;8822;-59
2022/12/10 04:37:37;;;;;;;;;9.60;9.40;;;;;1.12;84.13;99115.72;5078369;28;8946;-59
2022/12/10 04:40:06;;;;;;;;;7.80;7.00;;;;;1.11;84.24;99120.16;5077456;28;8875;-59
2022/12/10 04:42:35;;;;;;;;;6.20;5.20;;;;;1.11;83.83;99112.28;5059700;28;9529;-59
2022/12/10 04:45:02;;;;;;;;;9.20;7.00;;;;;1.14;83.70;99117.34;5057703;28;8852;-58
2022/12/10 04:47:30;;;;;;;;;11.20;10.20;;;;;1.15;83.69;99116.41;5058079;28;9529;-59
2022/12/10 04:49:58;;;;;;;;;3.60;2.80;;;;;1.15;83.81;99113.78;5066584;28;8805;-59
2022/12/10 04:52:26;;;;;;;;;8.20;5.60;;;;;1.12;84.38;99111.34;5077958;28;8818;-59
2022/12/10 04:54:53;;;;;;;;;7.40;7.40;;;;;1.12;83.58;99113.97;5077716;28;8834;-59
2022/12/10 04:57:21;;;;;;;;;12.00;10.40;;;;;1.10;84.01;99120.22;5077463;28;8916;-59
2022/12/10 04:59:49;;;;;;;;;12.40;10.60;;;;;1.07;83.43;99121.22;5067823;28;8808;-58
2022/12/10 05:02:16;;;;;;;;;9.20;7.80;;;;;1.07;83.55;99120.41;5056677;28;8828;-58
2022/12/10 05:04:45;;;;;;;;;7.00;5.60;;;;;1.06;83.95;99122.16;5056195;28;8850;-58
2022/12/10 05:07:13;;;;;;;;;6.80;6.00;;;;;1.08;84.33;99122.09;5056888;28;8922;-58
2022/12/10 05:09:41;;;;;;;;;9.60;7.20;;;;;1.07;83.59;99123.03;5062042;28;8833;-59
2022/12/10 05:12:09;;;;;;;;;8.20;7.00;;;;;1.06;83.10;99130.03;5076397;28;8919;-58
2022/12/10 05:14:37;;;;;;;;;16.60;12.00;;;;;1.04;83.66;99131.91;5076480;28;8880;-59
2022/12/10 05:17:04;;;;;;;;;8.60;7.80;;;;;1.04;84.09;99129.28;5076624;28;8849;-59
2022/12/10 05:19:32;;;;;;;;;12.20;10.60;;;;;1.02;83.22;99131.16;5070966;28;8796;-58
2022/12/10 05:24:45;;;;;;;;;11.60;11.60;;;;;0.96;83.89;99131.47;5056460;28;8862;-59
2022/12/10 05:27:14;;;;;;;;;3.40;3.20;;;;;0.96;83.05;99138.47;5056342;28;8820;-59
2022/12/10 05:29:41;;;;;;;;;7.40;6.00;;;;;0.95;83.77;99136.78;5061923;28;8809;-58
2022/12/10 05:32:09;;;;;;;;;4.00;4.00;;;;;0.94;83.84;99143.81;5076276;28;8848;-59
2022/12/10 05:34:37;;;;;;;;;8.20;8.20;;;;;0.96;83.65;99136.72;5075942;28;8821;-58
2022/12/10 05:37:05;;;;;;;;;7.00;5.60;;;;;0.95;84.07;99142.03;5076207;28;8850;-59
2022/12/10 05:39:33;;;;;;;;;2.20;1.00;;;;;0.94;83.93;99135.09;5071020;28;8816;-58
2022/12/10 05:42:01;;;;;;;;;6.00;5.40;;;;;0.92;83.99;99137.78;5055926;28;8828;-58
2022/12/10 05:44:29;;;;;;;;;6.80;6.00;;;;;0.91;84.06;99133.47;5056700;28;9546;-59
2022/12/10 05:46:56;;;;;;;;;2.60;2.60;;;;;0.93;84.07;99136.84;5056111;28;8858;-59
2022/12/10 05:49:24;;;;;;;;;8.60;7.00;;;;;0.94;84.05;99143.81;5059348;28;8832;-59
2022/12/10 05:51:53;;;;;;;;;9.60;6.20;;;;;0.94;83.58;99143.81;5075863;28;8861;-58
2022/12/10 05:54:21;;;;;;;;;8.00;6.60;;;;;0.95;83.60;99140.25;5076056;28;8841;-59
2022/12/10 05:56:49;;;;;;;;;8.20;7.80;;;;;0.95;83.88;99150.75;5076379;28;8814;-58
2022/12/10 05:59:17;;;;;;;;;9.40;8.20;;;;;0.95;83.42;99144.66;5060391;28;8793;-59
2022/12/10 06:01:45;;;;;;;;;8.20;7.60;;;;;0.95;84.00;99148.13;5056765;28;8854;-58
2022/12/10 06:04:15;;;;;;;;;10.00;9.60;;;;;0.95;83.36;99150.75;5056474;28;8852;-59
2022/12/10 06:06:42;;;;;;;;;8.60;6.20;;;;;0.96;83.27;99146.34;5055949;28;8962;-58
2022/12/10 06:09:10;;;;;;;;;6.20;6.20;;;;;0.96;83.16;99155.06;5070025;28;8836;-59
2022/12/10 06:11:37;;;;;;;;;9.60;9.60;;;;;1.00;84.03;99164.44;5075861;28;8907;-59
2022/12/10 06:14:05;;;;;;;;;7.40;6.40;;;;;1.01;83.30;99149.56;5076202;28;8854;-59
2022/12/10 06:16:34;;;;;;;;;9.80;9.60;;;;;1.03;82.84;99145.06;5075599;28;8871;-59
2022/12/10 06:19:02;;;;;;;;;1.40;1.40;;;;;1.04;83.53;99147.63;5062339;28;8816;-58
2022/12/10 06:21:30;;;;;;;;;10.40;9.40;;;;;1.06;83.51;99155.41;5055677;28;8828;-59
2022/12/10 06:23:58;;;;;;;;;4.00;4.00;;;;;1.04;83.38;99160.72;5056042;28;8835;-59
2022/12/10 06:26:26;;;;;;;;;6.40;4.00;;;;;0.98;82.67;99155.81;5055880;28;8846;-59
2022/12/10 06:28:53;;;;;;;;;8.60;7.80;;;;;0.96;83.12;99155.06;5067417;28;8969;-59
2022/12/10 06:31:21;;;;;;;;;7.80;7.00;;;;;0.94;83.62;99146.44;5075858;28;8826;-59
2022/12/10 06:33:49;;;;;;;;;1.00;0.80;;;;;0.92;83.63;99148.28;5076098;28;8826;-59
2022/12/10 06:36:16;;;;;;;;;1.00;1.00;;;;;0.93;83.08;99149.97;5076161;28;8837;-59
2022/12/10 06:38:44;;;;;;;;;7.00;6.60;;;;;0.93;83.41;99152.56;5064269;28;8946;-59
2022/12/10 06:41:17;;;;;;;;;7.80;5.00;;;;;0.96;83.95;99151.56;5055559;28;8828;-59
2022/12/10 06:43:45;;;;;;;;;11.00;7.80;;;;;0.99;83.35;99154.03;5054723;28;8849;-58
2022/12/10 06:46:12;;;;;;;;;7.60;6.40;;;;;1.00;83.32;99160.97;5054925;28;8953;-59
2022/12/10 06:48:40;;;;;;;;;7.00;6.20;;;;;1.00;83.09;99153.13;5064216;28;8817;-59
2022/12/10 06:51:08;;;;;;;;;7.00;6.60;;;;;0.98;83.61;99158.44;5074568;28;8849;-58
2022/12/10 06:53:38;;;;;;;;;7.80;7.80;;;;;1.01;83.38;99165.28;5074143;28;8923;-57
2022/12/10 06:56:05;;;;;;;;;11.40;10.40;;;;;1.04;83.65;99168.59;5074474;28;8837;-58
2022/12/10 06:58:33;;;;;;;;;7.00;5.60;;;;;1.06;82.50;99163.28;5065801;28;8917;-56
2022/12/10 07:01:00;;;;;;;;;4.80;3.40;;;;;1.07;82.71;99170.19;5054721;28;8828;-58
2022/12/10 07:03:29;;;;;;;;;8.40;8.20;;;;;1.06;83.00;99176.38;5054266;28;8828;-59
2022/12/10 07:05:59;;;;;;;;;4.80;3.60;;;;;1.02;83.19;99172.22;5054378;28;8820;-58
2022/12/10 07:08:27;;;;;;;;;9.00;9.00;;;;;1.02;82.78;99183.56;5061832;28;8826;-59
2022/12/10 07:10:54;;;;;;;;;8.80;8.00;;;;;1.03;82.60;99177.38;5074385;28;8926;-59
2022/12/10 07:13:22;;;;;;;;;8.60;7.00;;;;;1.03;83.40;99173.91;5074408;28;8857;-58
2022/12/10 07:15:58;;;;;;;;;11.20;10.00;;;;;1.01;83.22;99176.59;5074608;28;8846;-58
2022/12/10 07:18:27;;;;;;;;;8.80;8.20;;;;;1.03;83.24;99182.63;5067129;28;8816;-59
2022/12/10 07:20:54;;;;;;;;;10.40;9.20;;;;;1.03;83.13;99193.09;5054408;28;8863;-59
2022/12/10 07:23:22;;;;;;;;;16.00;13.80;;;;;1.01;82.82;99192.31;5057045;28;8824;-58
2022/12/10 07:25:50;;;;;;;;;11.60;10.00;;;;;1.02;82.99;99199.28;5058554;28;9505;-58
2022/12/10 07:28:19;;;;;;;;;9.20;9.20;;;;;1.03;83.18;99200.97;5064545;28;8818;-58
2022/12/10 07:30:46;;;;;;;;;3.20;3.20;;;;;1.03;82.65;99202.72;5078420;28;8821;-58
2022/12/10 07:33:14;;;;;;;;;11.20;10.00;;;;;1.04;82.59;99209.66;5078653;28;8846;-58
2022/12/10 07:35:41;;;;;;;;;6.80;6.00;;;;;1.04;82.97;99210.53;5078410;28;8915;-59
2022/12/10 07:38:15;;;;;;;;;10.00;8.80;;;;;1.05;82.63;99216.59;5073152;28;8925;-59
2022/12/10 07:40:43;;;;;;;;;4.20;3.40;;;;;1.05;82.61;99212.22;5058605;28;8832;-58
2022/12/10 07:43:11;;;;;;;;;7.80;7.60;;;;;1.04;82.53;99209.66;5057897;28;8832;-59
2022/12/10 07:45:39;;;;;;;;;7.40;7.40;;;;;1.04;83.07;99213.16;5057962;28;8856;-59
2022/12/10 07:48:07;;;;;;;;;7.00;6.00;;;;;1.01;82.46;99208.03;5057935;28;8824;-59
2022/12/10 07:50:34;;;;;;;;;9.40;7.80;;;;;1.00;82.70;99216.84;5065715;28;8874;-58
2022/12/10 07:53:02;;;;;;;;;11.60;11.20;;;;;0.96;82.73;99214.47;5078183;28;8806;-58
2022/12/10 07:55:30;;;;;;;;;8.80;8.00;;;;;0.92;82.85;99212.94;5078162;28;8861;-58
2022/12/10 07:57:58;;;;;;;;;15.00;11.20;;;;;0.89;82.62;99216.56;5077939;28;8918;-57
2022/12/10 08:00:26;;;;;;;;;9.80;9.80;;;;;0.85;82.90;99217.63;5077483;28;8878;-55
2022/12/10 08:02:53;;;;;;;;;9.00;7.00;;;;;0.84;82.49;99210.72;5076966;28;9531;-58
2022/12/10 08:05:21;;;;;;;;;9.80;9.80;;;;;0.83;82.52;99214.25;5063529;28;8811;-59
2022/12/10 08:07:49;;;;;;;;;13.40;11.20;;;;;0.80;83.10;99218.81;5056755;28;8844;-59
2022/12/10 08:10:21;;;;;;;;;11.40;11.20;;;;;0.78;82.80;99218.88;5049539;28;8877;-59
2022/12/10 08:12:49;;;;;;;;;4.60;3.80;;;;;0.79;82.93;99225.00;5057173;28;8851;-58
2022/12/10 08:15:17;;;;;;;;;8.60;8.20;;;;;0.81;82.98;99221.38;5057466;28;9325;-58
2022/12/10 08:17:45;;;;;;;;;9.00;7.80;;;;;0.84;82.92;99215.94;5057384;28;8816;-58
2022/12/10 08:20:13;;;;;;;;;9.00;8.40;;;;;0.87;82.64;99217.56;5060163;28;8824;-57
2022/12/10 08:22:40;;;;;;;;;8.20;7.80;;;;;0.88;82.53;99222.75;5076853;28;8845;-58
2022/12/10 08:25:08;;;;;;;;;5.60;4.80;;;;;0.87;82.88;99220.19;5077634;28;8834;-59
2022/12/10 08:27:36;;;;;;;;;6.60;6.00;;;;;0.87;82.57;99221.06;5077313;28;8849;-58
2022/12/10 08:30:06;;;;;;;;;6.60;6.00;;;;;0.90;82.72;99231.38;5058087;28;8801;-59
2022/12/10 08:32:35;;;;;;;;;6.40;6.40;;;;;0.93;83.03;99241.66;5057397;28;8870;-58
2022/12/10 08:35:02;;;;;;;;;5.40;5.20;;;;;0.95;82.49;99244.22;5057266;28;8859;-58
2022/12/10 08:37:30;;;;;;;;;5.20;5.20;;;;;0.98;82.32;99244.06;5057508;28;9603;-58
2022/12/10 08:39:58;;;;;;;;;0.60;0.60;;;;;0.99;82.96;99241.34;5057109;28;9501;-58
2022/12/10 08:42:25;;;;;;;;;7.80;7.00;;;;;1.02;82.36;99245.59;5056991;28;8832;-59
2022/12/10 08:44:53;;;;;;;;;9.60;8.60;;;;;0.99;82.41;99258.88;5064246;28;8801;-58
2022/12/10 08:47:21;;;;;;;;;7.80;5.20;;;;;0.97;82.60;99256.31;5075102;28;9666;-58
2022/12/10 08:49:49;;;;;;;;;11.20;11.20;;;;;0.99;82.26;99264.13;5075794;28;8826;-58
2022/12/10 08:52:16;;;;;;;;;8.60;6.60;;;;;1.00;82.10;99268.41;5075762;28;8833;-58
2022/12/10 08:54:45;;;;;;;;;12.00;9.40;;;;;1.01;82.61;99267.50;5075768;28;8845;-58
2022/12/10 08:57:13;;;;;;;;;9.60;8.80;;;;;1.03;82.21;99263.88;5075091;28;8845;-58
2022/12/10 08:59:41;;;;;;;;;1.80;1.00;;;;;1.00;82.51;99271.03;5075645;28;8923;-59
2022/12/10 09:02:08;;;;;;;;;8.20;6.80;;;;;0.92;82.14;99268.81;5075457;28;8833;-58
2022/12/10 09:04:36;;;;;;;;;4.20;4.20;;;;;0.91;82.41;99264.50;5071389;28;8810;-58
2022/12/10 09:07:05;;;;;;;;;1.00;1.00;;;;;0.92;82.33;99271.41;5056417;28;8836;-58
2022/12/10 09:09:39;;;;;;;;;4.00;3.20;;;;;0.94;81.84;99274.84;5055821;28;8854;-57
2022/12/10 09:12:07;;;;;;;;;8.20;7.60;;;;;1.02;81.78;99283.16;5055231;28;8828;-58
2022/12/10 09:14:34;;;;;;;;;12.20;10.00;;;;;1.07;82.26;99275.88;5055149;28;8874;-58
2022/12/10 09:17:02;;;;;;;;;9.80;9.60;;;;;1.12;82.05;99281.72;5054990;28;8870;-59
2022/12/10 09:19:30;;;;;;;;;6.80;5.60;;;;;1.19;82.06;99285.72;5055091;28;8848;-58
2022/12/10 09:21:58;;;;;;;;;10.40;9.80;;;;;1.25;82.15;99288.03;5054245;28;8820;-58
2022/12/10 09:24:26;;;;;;;;;7.40;7.00;;;;;1.30;82.02;99277.28;5069272;28;8810;-58
2022/12/10 09:26:54;;;;;;;;;9.00;7.00;;;;;1.30;81.29;99283.38;5074066;28;8833;-56
2022/12/10 09:29:21;;;;;;;;;9.80;8.80;;;;;1.34;82.19;99284.06;5073732;28;8837;-59
2022/12/10 09:31:54;;;;;;;;;6.60;5.60;;;;;1.36;81.49;99284.84;5073171;28;8837;-59
2022/12/10 09:34:22;;;;;;;;;10.00;8.60;;;;;1.40;81.17;99281.13;5072639;28;9503;-57
2022/12/10 09:36:50;;;;;;;;;6.00;6.00;;;;;1.42;81.50;99285.34;5071980;28;8837;-58
2022/12/10 09:39:17;;;;;;;;;11.20;8.20;;;;;1.40;81.17;99283.72;5071907;28;8960;-58
2022/12/10 09:41:45;;;;;;;;;5.20;5.20;;;;;1.39;81.14;99277.66;5072763;28;8970;-57
2022/12/10 09:44:15;;;;;;;;;10.60;8.00;;;;;1.42;81.39;99276.63;5072883;28;8841;-58
2022/12/10 09:46:43;;;;;;;;;6.80;6.40;;;;;1.46;81.14;99273.75;5060608;28;8954;-59
2022/12/10 09:49:11;;;;;;;;;5.20;4.40;;;;;1.51;81.12;99281.41;5052808;28;8859;-57
2022/12/10 09:51:39;;;;;;;;;7.00;6.60;;;;;1.51;81.28;99274.38;5052822;28;8843;-58
2022/12/10 09:54:07;;;;;;;;;10.40;9.60;;;;;1.53;81.26;99283.00;5052326;28;8823;-56
2022/12/10 09:56:36;;;;;;;;;7.40;7.00;;;;;1.55;80.97;99283.78;5052900;28;9879;-58
2022/12/10 09:59:04;;;;;;;;;10.00;9.60;;;;;1.56;81.38;99282.84;5053171;28;8851;-58
2022/12/10 10:01:32;;;;;;;;;10.40;9.20;;;;;1.57;80.94;99283.66;5060871;28;8840;-58
2022/12/10 10:04:00;;;;;;;;;9.60;9.60;;;;;1.59;81.68;99276.59;5072656;28;8821;-59
2022/12/10 10:06:27;;;;;;;;;11.20;11.20;;;;;1.59;81.27;99280.03;5073639;28;8842;-59
2022/12/10 10:08:56;;;;;;;;;6.00;6.00;;;;;1.57;80.81;99279.28;5073519;28;8896;-58
2022/12/10 10:11:24;;;;;;;;;4.80;4.80;;;;;1.60;81.26;99278.28;5073478;28;8857;-58
2022/12/10 10:13:52;;;;;;;;;12.00;12.00;;;;;1.62;80.86;99284.28;5073181;28;8822;-58
2022/12/10 10:16:20;;;;;;;;;9.80;8.20;;;;;1.64;81.39;99288.53;5073251;28;8829;-58
2022/12/10 10:18:48;;;;;;;;;7.00;6.40;;;;;1.65;80.48;99284.97;5073139;28;8907;-58
2022/12/10 10:21:17;;;;;;;;;9.40;9.40;;;;;1.65;81.19;99287.59;5073090;28;8837;-58
2022/12/10 10:23:45;;;;;;;;;7.80;7.40;;;;;1.69;81.27;99285.63;5069950;28;8830;-58
2022/12/10 10:26:12;;;;;;;;;7.00;6.00;;;;;1.74;80.57;99283.63;5053517;28;8901;-58
2022/12/10 10:28:40;;;;;;;;;12.60;11.60;;;;;1.75;80.60;99280.91;5052864;28;8812;-57
2022/12/10 10:31:08;;;;;;;;;9.60;9.00;;;;;1.77;80.38;99279.06;5053054;28;8820;-59
2022/12/10 10:33:38;;;;;;;;;9.20;8.80;;;;;1.80;80.82;99281.50;5053081;28;8830;-59
2022/12/10 10:36:06;;;;;;;;;7.00;6.40;;;;;1.82;80.76;99277.00;5052465;28;8850;-57
2022/12/10 10:38:38;;;;;;;;;12.00;11.20;;;;;1.81;80.50;99274.50;5052822;28;8959;-58
2022/12/10 10:41:05;;;;;;;;;6.80;6.80;;;;;1.81;80.45;99288.44;5052764;28;8932;-58
2022/12/10 10:43:33;;;;;;;;;11.20;9.60;;;;;1.79;80.72;99285.06;5053090;28;8907;-58
2022/12/10 10:46:04;;;;;;;;;8.60;8.60;;;;;1.78;80.68;99288.63;5052686;28;9490;-57
2022/12/10 10:48:32;;;;;;;;;12.00;8.80;;;;;1.78;80.70;99285.13;5058651;28;8945;-58
2022/12/10 10:51:00;;;;;;;;;9.40;7.40;;;;;1.78;80.95;99286.00;5071922;28;8841;-57
2022/12/10 10:53:28;;;;;;;;;10.40;9.00;;;;;1.81;80.50;99280.56;5072074;28;8834;-59
2022/12/10 10:55:56;;;;;;;;;12.80;11.60;;;;;1.84;80.91;99290.06;5072083;28;8825;-55
2022/12/10 10:58:24;;;;;;;;;15.00;14.20;;;;;1.82;80.54;99281.44;5076730;28;8859;-58
2022/12/10 11:00:53;;;;;;;;;12.80;12.80;;;;;1.80;80.99;99286.75;5075266;28;8845;-58
2022/12/10 11:03:20;;;;;;;;;11.60;11.60;;;;;1.76;80.80;99284.38;5074875;28;8830;-58
2022/12/10 11:05:48;;;;;;;;;7.40;6.60;;;;;1.71;80.71;99284.63;5075340;28;8825;-57
2022/12/10 11:08:17;;;;;;;;;9.40;7.80;;;;;1.69;80.77;99289.13;5075266;28;8825;-57
2022/12/10 11:10:46;;;;;;;;;13.20;10.60;;;;;1.71;80.83;99287.25;5075384;28;8837;-58
2022/12/10 11:13:14;;;;;;;;;10.20;8.80;;;;;1.73;80.71;99277.50;5074993;28;8851;-58
2022/12/10 11:15:42;;;;;;;;;8.40;8.00;;;;;1.78;80.93;99282.50;5062216;28;8955;-58
2022/12/10 11:18:09;;;;;;;;;10.20;10.20;;;;;1.81;80.31;99275.31;5054777;28;8909;-58
2022/12/10 11:20:37;;;;;;;;;10.40;9.40;;;;;1.80;80.33;99280.63;5054964;28;8828;-59
2022/12/10 11:23:13;;;;;;;;;9.80;8.00;;;;;1.81;80.78;99280.56;5056404;28;8840;-59
2022/12/10 11:25:41;;;;;;;;;7.00;6.40;;;;;1.81;80.45;99287.59;5056299;28;8904;-58
2022/12/10 11:28:09;;;;;;;;;16.80;13.40;;;;;1.80;81.17;99284.13;5056674;28;9556;-59
2022/12/10 11:30:37;;;;;;;;;15.40;13.80;;;;;1.80;80.96;99281.50;5056601;28;8974;-59
2022/12/10 11:33:05;;;;;;;;;13.80;13.80;;;;;1.82;80.47;99282.25;5056935;28;8823;-58
2022/12/10 11:35:35;;;;;;;;;10.80;9.80;;;;;1.81;80.37;99290.22;5057039;28;8838;-59
2022/12/10 11:38:02;;;;;;;;;7.80;7.00;;;;;1.79;81.19;99292.94;5057017;28;9548;-59
2022/12/10 11:40:30;;;;;;;;;11.00;11.00;;;;;1.79;80.87;99298.19;5057338;28;9474;-58
2022/12/10 11:42:58;;;;;;;;;5.20;5.20;;;;;1.77;80.62;99302.66;5056696;28;8858;-58
2022/12/10 11:45:27;;;;;;;;;9.60;8.80;;;;;1.74;80.40;99300.19;5075322;28;8806;-57
2022/12/10 11:47:55;;;;;;;;;6.20;5.20;;;;;1.72;81.03;99298.56;5075750;28;8837;-57
2022/12/10 11:50:23;;;;;;;;;13.00;11.20;;;;;1.72;80.40;99307.31;5074996;28;8829;-58
2022/12/10 11:52:50;;;;;;;;;12.40;9.80;;;;;1.74;80.70;99304.63;5075732;28;8857;-59
2022/12/10 11:55:18;;;;;;;;;7.00;7.00;;;;;1.74;80.45;99300.19;5075280;28;8955;-58
2022/12/10 11:57:46;;;;;;;;;6.20;6.20;;;;;1.76;80.87;99298.31;5074889;28;8975;-58